Time;durP1;ratioP1;P1;durP2;ratioP2;P2;SDS_P1;SDS_P2;PMS_P1;PMS_P2;Temp;Humidity;BMP_temperature;BMP_pressure;BME280_temperature;BME280_humidity;BME280_pressure;Samples;Min_cycle;Max_cycle;Signal;HPM_P1;HPM_P2
2021/01/11 00:02:24;;;;;;;17.27;7.23;;;;;;;-7.84;86.43;99711.94;5113162;28;20040;-79
2021/01/11 00:04:51;;;;;;;17.17;6.97;;;;;;;-7.71;86.90;99730.81;5110985;28;20051;-79
2021/01/11 00:07:17;;;;;;;22.83;8.17;;;;;;;-7.61;86.78;99733.16;5104895;28;20054;-79
2021/01/11 00:09:43;;;;;;;18.77;7.20;;;;;;;-7.77;86.89;99709.06;5105995;28;20063;-79
2021/01/11 00:12:10;;;;;;;17.20;8.00;;;;;;;-7.65;87.18;99727.09;5108647;27;20047;-79
2021/01/11 00:14:37;;;;;;;16.27;6.40;;;;;;;-7.58;86.53;99736.53;5108459;28;20442;-79
2021/01/11 00:17:04;;;;;;;19.17;7.57;;;;;;;-7.60;86.94;99735.75;5109263;28;20044;-79
2021/01/11 00:19:30;;;;;;;14.73;6.60;;;;;;;-7.59;86.88;99726.88;5105773;28;20047;-79
2021/01/11 00:21:56;;;;;;;19.77;8.57;;;;;;;-7.48;88.04;99734.44;5111648;28;20047;-79
2021/01/11 00:24:23;;;;;;;20.47;8.00;;;;;;;-7.40;88.08;99737.63;5110392;28;20048;-79
2021/01/11 00:26:50;;;;;;;13.27;6.13;;;;;;;-7.55;87.77;99711.81;5111419;27;20047;-79
2021/01/11 00:29:17;;;;;;;17.90;7.80;;;;;;;-7.48;87.99;99702.72;5110434;28;20043;-79
2021/01/11 00:31:44;;;;;;;16.43;7.40;;;;;;;-7.48;88.67;99706.22;5110793;28;20055;-79
2021/01/11 00:34:11;;;;;;;16.83;7.33;;;;;;;-7.36;88.43;99718.13;5110038;28;20051;-79
2021/01/11 00:36:37;;;;;;;23.60;7.90;;;;;;;-7.24;88.78;99734.41;5111138;28;20063;-79
2021/01/11 00:39:04;;;;;;;14.80;8.23;;;;;;;-7.33;89.01;99712.72;5108424;28;20185;-79
2021/01/11 00:41:30;;;;;;;13.80;6.67;;;;;;;-7.18;87.79;99729.75;5110226;28;20393;-79
2021/01/11 00:43:57;;;;;;;16.33;7.07;;;;;;;-7.11;88.13;99740.94;5103792;28;20044;-79
2021/01/11 00:46:24;;;;;;;22.37;8.80;;;;;;;-7.31;88.45;99697.66;5109363;28;20051;-79
2021/01/11 00:48:52;;;;;;;20.23;8.53;;;;;;;-7.30;87.68;99709.06;5110579;28;20168;-79
2021/01/11 00:51:18;;;;;;;17.13;6.90;;;;;;;-7.15;87.96;99728.75;5101479;28;20121;-79
2021/01/11 00:53:45;;;;;;;16.97;6.83;;;;;;;-7.27;87.76;99706.34;5110533;28;20039;-79
2021/01/11 00:56:16;;;;;;;19.60;7.87;;;;;;;-7.22;87.65;99714.09;5112080;27;20076;-79
2021/01/11 00:58:43;;;;;;;21.57;7.43;;;;;;;-7.25;87.30;99707.13;5111323;28;20097;-79
2021/01/11 01:01:10;;;;;;;18.23;7.60;;;;;;;-7.09;87.41;99736.47;5110643;28;20100;-79
2021/01/11 01:03:36;;;;;;;16.90;8.17;;;;;;;-7.31;86.75;99697.66;5111168;28;20049;-79
2021/01/11 01:06:05;;;;;;;19.30;8.53;;;;;;;-7.31;87.44;99702.94;5111466;28;20404;-79
2021/01/11 01:08:32;;;;;;;22.87;8.40;;;;;;;-7.19;87.34;99711.31;5111880;28;20101;-80
2021/01/11 01:10:58;;;;;;;18.57;7.90;;;;;;;-7.22;87.04;99712.28;5111131;28;20047;-79
2021/01/11 01:13:24;;;;;;;16.53;8.73;;;;;;;-7.34;86.78;99697.78;5111071;28;20400;-79
2021/01/11 01:15:50;;;;;;;22.80;7.33;;;;;;;-7.25;86.89;99712.41;5109747;28;20064;-79
2021/01/11 01:18:17;;;;;;;18.53;7.77;;;;;;;-7.18;86.83;99726.22;5109740;28;20048;-79
2021/01/11 01:20:46;;;;;;;21.50;8.57;;;;;;;-6.96;86.25;99731.56;5112897;28;20039;-79
2021/01/11 01:23:13;;;;;;;;;;;;;;;-7.18;87.12;99736.81;5112485;28;20400;-80
2021/01/11 01:25:40;;;;;;;15.10;7.20;;;;;;;-7.40;87.38;99729.69;5112467;28;20299;-79
2021/01/11 01:28:07;;;;;;;18.57;7.47;;;;;;;-7.38;87.75;99735.78;5111392;28;20097;-79
2021/01/11 01:30:33;;;;;;;15.30;7.10;;;;;;;-7.52;87.67;99724.88;5111975;28;20399;-79
2021/01/11 01:33:00;;;;;;;22.20;7.97;;;;;;;-7.44;88.12;99722.81;5109779;28;20517;-79
2021/01/11 01:35:26;;;;;;;18.60;8.73;;;;;;;-7.37;87.97;99736.66;5111720;28;20122;-79
2021/01/11 01:37:53;;;;;;;20.33;8.33;;;;;;;-7.45;87.91;99720.22;5111471;28;20059;-79
2021/01/11 01:40:20;;;;;;;19.37;9.03;;;;;;;-7.55;88.35;99711.81;5108512;28;20047;-79
2021/01/11 01:42:46;;;;;;;25.13;9.50;;;;;;;-7.42;87.97;99733.31;5110312;28;20044;-79
2021/01/11 01:45:13;;;;;;;19.10;8.83;;;;;;;-7.40;87.70;99750.00;5108780;28;20047;-79
2021/01/11 01:47:40;;;;;;;20.93;8.90;;;;;;;-7.41;87.03;99750.91;5111169;28;20066;-79
2021/01/11 01:50:08;;;;;;;17.20;8.97;;;;;;;-7.44;86.48;99749.22;5110726;28;20048;-79
2021/01/11 01:52:36;;;;;;;19.40;8.57;;;;;;;-7.59;86.90;99737.44;5110436;28;20053;-79
2021/01/11 01:55:03;;;;;;;25.87;10.63;;;;;;;-7.61;86.70;99733.16;5111368;28;20101;-79
2021/01/11 01:57:31;;;;;;;28.47;10.30;;;;;;;-7.54;86.28;99740.78;5108787;28;20050;-79
2021/01/11 01:59:58;;;;;;;18.93;8.50;;;;;;;-7.66;86.02;99736.81;5109552;28;20073;-79
2021/01/11 02:02:24;;;;;;;21.77;8.87;;;;;;;-7.68;86.52;99727.22;5109900;28;20043;-80
2021/01/11 02:04:51;;;;;;;21.93;9.07;;;;;;;-7.72;86.12;99723.84;5109886;28;20040;-79
2021/01/11 02:07:28;;;;;;;20.03;8.77;;;;;;;-7.77;85.90;99717.84;5110168;28;20043;-79
2021/01/11 02:10:06;;;;;;;18.77;8.53;;;;;;;-7.92;85.70;99692.88;5106867;28;20063;-79
2021/01/11 02:13:00;;;;;;;21.50;8.40;;;;;;;-7.75;85.63;99721.31;5111829;28;20048;-79
2021/01/11 02:15:43;;;;;;;24.83;8.70;;;;;;;-7.93;85.55;99698.19;5111239;28;20539;-79
2021/01/11 02:18:33;;;;;;;20.77;8.47;;;;;;;-7.94;84.82;99707.06;5106262;28;20040;-79
2021/01/11 02:21:08;;;;;;;20.73;7.77;;;;;;;-8.03;85.62;99703.81;5110835;28;20127;-79
2021/01/11 02:24:14;;;;;;;22.97;9.67;;;;;;;-7.90;85.52;99717.44;5114802;28;20047;-79
2021/01/11 02:26:58;;;;;;;19.90;7.40;;;;;;;-8.07;85.68;99691.66;5114105;28;20039;-79
2021/01/11 02:29:42;;;;;;;16.37;7.33;;;;;;;-7.98;84.97;99701.00;5115838;28;20101;-79
2021/01/11 02:32:14;;;;;;;22.67;8.53;;;;;;;-8.17;85.21;99685.00;5115467;28;20051;-79
2021/01/11 02:34:42;;;;;;;17.80;8.33;;;;;;;-8.00;85.57;99710.78;5115225;28;20059;-79
2021/01/11 02:37:09;;;;;;;16.90;7.87;;;;;;;-8.11;85.67;99703.25;5116024;28;20089;-79
2021/01/11 02:39:35;;;;;;;18.00;7.17;;;;;;;-8.20;85.30;99688.59;5116628;28;20393;-79
2021/01/11 02:42:01;;;;;;;16.40;7.47;;;;;;;-8.14;85.20;99684.88;5116678;28;20043;-79
2021/01/11 02:44:27;;;;;;;18.87;7.47;;;;;;;-8.14;86.31;99699.81;5115627;28;20048;-79
2021/01/11 02:46:54;;;;;;;17.57;7.57;;;;;;;-8.10;85.98;99701.44;5116813;28;20125;-79
2021/01/11 02:49:26;;;;;;;16.43;8.10;;;;;;;-8.25;85.71;99681.75;5115691;28;20056;-79
2021/01/11 02:52:05;;;;;;;21.33;7.63;;;;;;;-8.29;85.35;99693.34;5116545;28;20059;-79
2021/01/11 02:54:38;;;;;;;16.10;7.60;;;;;;;-8.14;85.01;99715.66;5095485;28;20131;-79
2021/01/11 02:57:23;;;;;;;20.47;6.90;;;;;;;-8.24;85.33;99715.97;5114447;28;20408;-79
2021/01/11 02:59:53;;;;;;;15.90;6.60;;;;;;;-8.39;84.83;99704.19;5116357;28;20044;-79
2021/01/11 03:02:21;;;;;;;18.20;7.23;;;;;;;-8.29;84.75;99711.81;5115451;28;20047;-79
2021/01/11 03:04:49;;;;;;;13.10;6.60;;;;;;;-8.33;84.88;99703.13;5116056;28;20047;-79
2021/01/11 03:07:16;;;;;;;18.90;7.83;;;;;;;-8.37;85.43;99694.47;5115022;28;20044;-79
2021/01/11 03:09:45;;;;;;;14.17;6.30;;;;;;;-8.48;86.29;99701.88;5114414;28;20491;-79
2021/01/11 03:12:12;;;;;;;14.02;6.68;;;;;;;-8.24;85.44;99713.34;5113609;28;20056;-79
2021/01/11 03:14:39;;;;;;;16.50;7.17;;;;;;;-8.51;85.23;99682.69;5112482;28;20085;-79
2021/01/11 03:17:06;;;;;;;19.57;6.80;;;;;;;-8.54;85.37;99676.59;5113676;28;20043;-79
2021/01/11 03:19:33;;;;;;;15.23;7.57;;;;;;;-8.57;84.83;99689.03;5133976;27;20055;-79
2021/01/11 03:22:01;;;;;;;18.20;7.40;;;;;;;-8.57;84.70;99702.19;5124326;27;20048;-79
2021/01/11 03:24:27;;;;;;;15.17;7.90;;;;;;;-8.67;85.53;99696.41;5114092;28;20074;-79
2021/01/11 03:26:58;;;;;;;14.63;6.77;;;;;;;-8.64;85.06;99698.03;5114940;28;20035;-79
2021/01/11 03:29:24;;;;;;;16.53;7.50;;;;;;;-8.60;85.54;99697.03;5111504;28;20184;-79
2021/01/11 03:31:53;;;;;;;17.57;8.10;;;;;;;-8.56;85.13;99711.84;5115252;28;20039;-79
2021/01/11 03:34:20;;;;;;;16.13;6.93;;;;;;;-8.64;85.05;99701.56;5114490;28;20047;-79
2021/01/11 03:36:47;;;;;;;15.10;6.00;;;;;;;-8.64;85.85;99695.41;5114514;28;20494;-78
2021/01/11 03:39:15;;;;;;;17.10;7.77;;;;;;;-8.62;85.33;99705.00;5115402;28;20055;-79
2021/01/11 03:41:42;;;;;;;15.93;7.07;;;;;;;-8.47;84.79;99723.88;5115475;28;20043;-79
2021/01/11 03:44:10;;;;;;;18.70;7.57;;;;;;;-8.70;84.59;99679.78;5123550;27;20050;-79
2021/01/11 03:46:37;;;;;;;17.03;6.77;;;;;;;-8.57;85.32;99707.47;5114848;28;20103;-78
2021/01/11 03:49:03;;;;;;;16.50;7.17;;;;;;;-8.70;84.13;99695.63;5114595;28;20780;-78
2021/01/11 03:51:30;;;;;;;19.50;7.13;;;;;;;-8.78;84.38;99707.25;5114658;28;20054;-79
2021/01/11 03:53:56;;;;;;;18.63;7.80;;;;;;;-8.68;85.06;99710.47;5114602;28;20044;-79
2021/01/11 03:56:23;;;;;;;14.27;6.93;;;;;;;-8.74;84.98;99694.88;5114445;28;20172;-79
2021/01/11 03:58:50;;;;;;;21.03;8.90;;;;;;;-8.65;84.72;99713.00;5114506;28;20047;-78
2021/01/11 04:01:16;;;;;;;18.57;7.43;;;;;;;-8.65;85.51;99717.44;5114120;28;20050;-79
2021/01/11 04:03:42;;;;;;;19.00;8.63;;;;;;;-8.66;85.51;99711.28;5113944;28;20059;-79
2021/01/11 04:06:09;;;;;;;20.73;8.67;;;;;;;-8.61;85.83;99711.13;5114051;28;20047;-79
2021/01/11 04:08:35;;;;;;;20.93;8.03;;;;;;;-8.81;85.49;99699.44;5115040;28;20055;-79
2021/01/11 04:11:02;;;;;;;12.43;6.63;;;;;;;-8.72;85.16;99714.13;5114854;28;20043;-79
2021/01/11 04:13:29;;;;;;;14.43;7.30;;;;;;;-8.91;84.88;99687.50;5114805;28;20048;-79
2021/01/11 04:15:57;;;;;;;23.13;8.77;;;;;;;-8.89;85.05;99688.31;5114551;28;20140;-79
2021/01/11 04:18:23;;;;;;;17.93;7.73;;;;;;;-8.90;84.97;99692.75;5114517;28;20055;-79
2021/01/11 04:20:49;;;;;;;23.73;8.53;;;;;;;-8.93;84.87;99684.03;5113050;28;20043;-79
2021/01/11 04:23:16;;;;;;;16.43;7.73;;;;;;;-8.79;84.83;99723.13;5111420;28;20066;-79
2021/01/11 04:25:42;;;;;;;18.47;7.30;;;;;;;-9.02;85.21;99687.84;5112071;28;20097;-79
2021/01/11 04:28:08;;;;;;;16.83;7.27;;;;;;;-8.96;84.68;99698.16;5111531;28;20043;-79
2021/01/11 04:30:35;;;;;;;17.60;7.60;;;;;;;-8.91;83.77;99706.81;5111492;28;20075;-79
2021/01/11 04:33:02;;;;;;;12.00;6.37;;;;;;;-8.94;83.76;99712.19;5111719;28;20047;-79
2021/01/11 04:35:29;;;;;;;22.70;7.23;;;;;;;-9.04;85.42;99681.75;5111579;28;20048;-79
2021/01/11 04:37:55;;;;;;;16.87;7.23;;;;;;;-9.02;85.14;99697.53;5112417;28;20047;-79
2021/01/11 04:40:22;;;;;;;18.97;8.50;;;;;;;-8.92;85.13;99712.97;5112769;28;20044;-79
2021/01/11 04:42:56;;;;;;;16.50;7.83;;;;;;;-8.98;84.77;99701.78;5113780;28;20040;-79
2021/01/11 04:45:23;;;;;;;22.63;8.23;;;;;;;-8.90;84.77;99716.44;5112836;28;20135;-79
2021/01/11 04:47:55;;;;;;;13.33;7.10;;;;;;;-8.90;84.71;99712.94;5112330;28;20104;-79
2021/01/11 04:50:24;;;;;;;19.40;7.37;;;;;;;-9.14;84.88;99681.19;5111372;28;20055;-79
2021/01/11 04:52:50;;;;;;;17.13;6.95;;;;;;;-9.22;84.99;99670.03;5111578;28;20079;-79
2021/01/11 04:55:17;;;;;;;16.67;7.80;;;;;;;-8.99;85.40;99711.44;5110909;28;20059;-79
2021/01/11 04:57:51;;;;;;;21.00;8.07;;;;;;;-8.98;87.41;99693.88;5111336;28;20043;-79
2021/01/11 05:00:22;;;;;;;21.50;8.10;;;;;;;-9.00;87.34;99687.78;5111529;28;20055;-79
2021/01/11 05:02:58;;;;;;;14.10;7.23;;;;;;;-8.98;86.99;99700.00;5111820;28;20499;-79
2021/01/11 05:05:26;;;;;;;19.03;8.37;;;;;;;-8.85;87.24;99687.31;5115259;27;20585;-79
2021/01/11 05:07:53;;;;;;;19.37;7.83;;;;;;;-8.84;87.77;99696.91;5111500;28;20416;-79
2021/01/11 05:10:24;;;;;;;23.23;8.47;;;;;;;-8.89;87.61;99685.69;5111302;28;20039;-79
2021/01/11 05:12:55;;;;;;;16.90;8.13;;;;;;;-8.86;87.46;99682.94;5111747;28;20471;-80
2021/01/11 05:15:22;;;;;;;26.90;9.67;;;;;;;-8.94;87.99;99677.03;5110240;28;20066;-79
2021/01/11 05:17:49;;;;;;;19.47;7.77;;;;;;;-8.75;88.09;99696.63;5112878;28;20047;-78
2021/01/11 05:20:20;;;;;;;21.60;7.63;;;;;;;-8.91;88.04;99671.72;5113759;28;20060;-78
2021/01/11 05:22:47;;;;;;;20.73;7.87;;;;;;;-8.85;88.42;99667.97;5111775;28;20399;-79
2021/01/11 05:25:15;;;;;;;25.53;9.00;;;;;;;-8.77;88.70;99672.09;5111184;28;20297;-79
2021/01/11 05:27:43;;;;;;;18.67;7.97;;;;;;;-8.69;89.08;99700.84;5110494;28;20603;-79
2021/01/11 05:30:17;;;;;;;30.63;10.17;;;;;;;-8.77;88.67;99694.97;5111105;28;20056;-79
2021/01/11 05:32:44;;;;;;;24.43;9.33;;;;;;;-8.83;89.24;99682.00;5111786;28;20055;-79
2021/01/11 05:35:11;;;;;;;24.43;9.47;;;;;;;-8.61;90.24;99703.22;5110941;28;20052;-79
2021/01/11 05:37:40;;;;;;;19.40;8.87;;;;;;;-8.74;90.54;99679.06;5111434;28;20052;-79
2021/01/11 05:40:10;;;;;;;26.92;9.48;;;;;;;-8.56;91.68;99706.56;5111329;28;20055;-79
2021/01/11 05:42:38;;;;;;;19.73;9.03;;;;;;;-8.52;91.96;99726.63;5111469;28;20047;-79
2021/01/11 05:45:16;;;;;;;34.87;10.47;;;;;;;-8.49;92.42;99704.56;5110410;28;20134;-79
2021/01/11 05:48:00;;;;;;;25.93;10.70;;;;;;;-8.40;93.12;99705.13;5110933;28;20487;-79
2021/01/11 05:50:28;;;;;;;31.27;9.83;;;;;;;-8.40;92.42;99699.84;5106613;28;20104;-79
2021/01/11 05:52:56;;;;;;;26.93;10.40;;;;;;;-8.28;92.67;99724.94;5110827;28;20051;-79
2021/01/11 05:55:24;;;;;;;22.93;10.37;;;;;;;-8.36;92.74;99706.72;5110449;28;20052;-79
2021/01/11 05:57:58;;;;;;;26.50;8.70;;;;;;;-8.49;90.83;99696.66;5114255;28;20097;-79
2021/01/11 06:00:26;;;;;;;24.20;8.77;;;;;;;-8.58;88.20;99713.66;5114518;28;20101;-79
2021/01/11 06:03:00;;;;;;;20.07;9.13;;;;;;;-8.43;88.44;99728.06;5114701;28;20044;-79
2021/01/11 06:05:28;;;;;;;17.87;8.93;;;;;;;-8.46;88.33;99726.44;5114707;28;20043;-79
2021/01/11 06:07:56;;;;;;;19.13;9.50;;;;;;;-8.45;88.98;99717.59;5114773;28;20047;-79
2021/01/11 06:10:23;;;;;;;26.43;9.53;;;;;;;-8.36;89.37;99732.22;5114515;28;20411;-79
2021/01/11 06:12:51;;;;;;;26.60;8.87;;;;;;;-8.52;89.80;99712.59;5115399;28;20043;-79
2021/01/11 06:15:19;;;;;;;27.03;9.93;;;;;;;-8.39;90.25;99720.00;5112834;28;20052;-79
2021/01/11 06:17:46;;;;;;;25.10;9.93;;;;;;;-8.42;89.98;99714.84;5114667;28;20047;-79
2021/01/11 06:20:15;;;;;;;24.13;10.77;;;;;;;-8.30;90.79;99716.19;5115062;28;20047;-79
2021/01/11 06:23:13;;;;;;;31.38;11.40;;;;;;;-8.43;90.06;99689.41;5108362;27;20048;-79
2021/01/11 06:25:43;;;;;;;24.00;11.00;;;;;;;-8.34;91.92;99713.72;5113153;28;20135;-79
2021/01/11 06:28:11;;;;;;;29.87;11.17;;;;;;;-8.31;93.20;99695.16;5114084;28;20075;-79
2021/01/11 06:30:48;;;;;;;34.20;12.20;;;;;;;-8.13;92.84;99688.38;5115149;28;20058;-79
2021/01/11 06:33:16;;;;;;;35.43;11.50;;;;;;;-7.96;92.08;99716.78;5116598;28;20083;-79
2021/01/11 06:35:44;;;;;;;29.83;11.17;;;;;;;-7.89;91.60;99723.56;5116355;28;20113;-79
2021/01/11 06:38:21;;;;;;;38.47;12.20;;;;;;;-7.94;91.55;99702.63;5116433;28;20043;-79
2021/01/11 06:40:52;;;;;;;29.33;10.63;;;;;;;-7.84;90.46;99711.94;5116529;28;20301;-79
2021/01/11 06:43:20;;;;;;;26.17;10.00;;;;;;;-8.06;90.13;99680.19;5116206;28;20055;-79
2021/01/11 06:45:48;;;;;;;35.10;11.37;;;;;;;-8.08;89.09;99682.03;5115585;28;20048;-79
2021/01/11 06:48:16;;;;;;;32.43;10.77;;;;;;;-7.90;89.44;99720.09;5116501;28;20101;-79
2021/01/11 06:50:44;;;;;;;31.83;11.37;;;;;;;-8.13;89.42;99698.91;5116102;28;20100;-79
2021/01/11 06:53:11;;;;;;;30.47;9.60;;;;;;;-8.14;88.53;99697.19;5115943;28;20453;-79
2021/01/11 06:55:38;;;;;;;26.40;10.00;;;;;;;-8.07;87.97;99696.94;5115745;28;20120;-79
2021/01/11 06:58:05;;;;;;;22.97;8.80;;;;;;;-8.04;89.01;99722.34;5116035;28;20396;-79
2021/01/11 07:00:37;;;;;;;33.50;11.33;;;;;;;-8.14;87.95;99690.16;5116085;28;20048;-79
2021/01/11 07:03:05;;;;;;;21.73;10.27;;;;;;;-8.08;87.60;99697.84;5095443;28;20044;-79
2021/01/11 07:05:51;;;;;;;21.33;8.93;;;;;;;-8.05;87.76;99713.56;5095382;28;20052;-79
2021/01/11 07:08:21;;;;;;;35.07;12.07;;;;;;;-8.05;87.42;99713.56;5111502;28;20054;-79
2021/01/11 07:11:04;;;;;;;21.43;9.23;;;;;;;-8.30;87.81;99681.91;5115907;28;20496;-79
2021/01/11 07:13:32;;;;;;;27.73;10.03;;;;;;;-8.13;87.92;99717.38;5115832;28;20044;-79
2021/01/11 07:16:17;;;;;;;35.90;9.13;;;;;;;-8.06;87.63;99721.53;5101163;28;20051;-79
2021/01/11 07:18:56;;;;;;;21.73;9.37;;;;;;;-8.28;87.06;99692.41;5109036;28;20055;-79
2021/01/11 07:21:25;;;;;;;16.52;8.82;;;;;;;-8.18;87.45;99707.00;5115503;28;20457;-79
2021/01/11 07:23:53;;;;;;;19.38;9.00;;;;;;;-8.04;86.60;99725.88;5115569;28;20043;-79
2021/01/11 07:26:22;;;;;;;22.47;9.70;;;;;;;-8.22;86.94;99708.00;5114887;28;20051;-79
2021/01/11 07:28:56;;;;;;;26.33;9.17;;;;;;;-8.17;86.65;99727.19;5114461;28;20056;-79
2021/01/11 07:31:24;;;;;;;26.10;11.00;;;;;;;-8.25;87.04;99730.09;5115224;28;20055;-79
2021/01/11 07:34:01;;;;;;;21.73;9.40;;;;;;;-8.24;87.37;99723.91;5115315;28;20051;-79
2021/01/11 07:36:29;;;;;;;27.53;9.17;;;;;;;-8.21;87.69;99731.69;5114970;28;20055;-79
2021/01/11 07:39:17;;;;;;;26.40;9.97;;;;;;;-8.30;87.53;99710.91;5114771;28;20518;-79
2021/01/11 07:41:46;;;;;;;22.33;9.07;;;;;;;-8.08;87.24;99736.59;5115503;28;20039;-79
2021/01/11 07:44:20;;;;;;;18.25;8.40;;;;;;;-8.21;86.53;99701.84;5115104;28;20048;-79
2021/01/11 07:46:54;;;;;;;22.00;9.67;;;;;;;-8.02;86.78;99736.38;5115186;28;20055;-79
2021/01/11 07:49:22;;;;;;;27.23;9.97;;;;;;;-8.08;87.01;99723.38;5115263;28;20760;-79
2021/01/11 07:51:50;;;;;;;25.33;10.07;;;;;;;-8.18;87.40;99713.13;5115044;28;20056;-79
2021/01/11 07:54:18;;;;;;;29.87;12.40;;;;;;;-7.99;87.48;99744.16;5114743;28;20503;-79
2021/01/11 07:56:47;;;;;;;24.37;10.07;;;;;;;-8.08;87.44;99742.72;5100253;28;20058;-79
2021/01/11 07:59:13;;;;;;;24.75;9.30;;;;;;;-7.93;87.66;99753.63;5095019;28;20040;-79
2021/01/11 08:01:43;;;;;;;29.80;11.20;;;;;;;-7.88;87.76;99754.34;5110541;28;20058;-79
2021/01/11 08:04:10;;;;;;;35.97;12.18;;;;;;;-7.79;87.65;99761.94;5114638;28;20089;-79
2021/01/11 08:06:55;;;;;;;34.83;11.37;;;;;;;-7.79;87.10;99761.09;5114800;28;20043;-79
2021/01/11 08:09:23;;;;;;;28.93;9.80;;;;;;;-7.94;87.62;99739.59;5113058;28;20055;-79
2021/01/11 08:12:04;;;;;;;28.63;10.70;;;;;;;-7.70;88.01;99773.94;5114454;28;20094;-79
2021/01/11 08:14:31;;;;;;;28.03;10.80;;;;;;;-7.65;88.32;99767.59;5113041;28;20052;-80
2021/01/11 08:16:58;;;;;;;36.43;9.83;;;;;;;-7.71;88.32;99774.84;5095960;28;20056;-80
2021/01/11 08:19:25;;;;;;;23.80;9.60;;;;;;;-7.82;88.93;99738.28;5113821;28;20054;-80
2021/01/11 08:21:57;;;;;;;28.23;9.00;;;;;;;-7.62;89.12;99760.47;5114641;28;20058;-79
2021/01/11 08:24:23;;;;;;;32.17;11.30;;;;;;;-7.64;89.04;99749.97;5114030;28;20055;-79
2021/01/11 08:26:57;;;;;;;27.90;11.27;;;;;;;-7.53;89.05;99754.84;5113682;28;20491;-78
2021/01/11 08:29:24;;;;;;;27.83;11.40;;;;;;;-7.55;88.67;99744.34;5114361;28;20062;-78
2021/01/11 08:31:53;;;;;;;29.97;10.93;;;;;;;-7.35;88.63;99763.88;5114325;28;20440;-78
2021/01/11 08:34:19;;;;;;;40.45;15.23;;;;;;;-7.36;88.38;99749.81;5114367;28;20039;-78
2021/01/11 08:36:49;;;;;;;25.07;11.80;;;;;;;-7.24;89.42;99764.34;5114560;28;20039;-78
2021/01/11 08:39:17;;;;;;;34.88;13.70;;;;;;;-7.22;89.21;99735.22;5113998;28;20048;-78
2021/01/11 08:41:48;;;;;;;36.80;11.30;;;;;;;-7.05;89.15;99730.13;5113996;28;20043;-78
2021/01/11 08:44:29;;;;;;;33.60;11.90;;;;;;;-6.98;89.28;99720.19;5114032;28;20047;-78
2021/01/11 08:46:59;;;;;;;33.73;11.07;;;;;;;-6.76;89.08;99768.66;5109673;28;20078;-78
2021/01/11 08:49:25;;;;;;;;;;;;;;;-6.61;89.50;99767.19;5099558;28;20051;-78
2021/01/11 08:51:51;;;;;;;25.53;10.00;;;;;;;-6.82;89.49;99734.53;5107181;28;20283;-78
2021/01/11 08:54:31;;;;;;;32.07;12.60;;;;;;;-6.77;89.14;99726.41;5110117;28;20043;-78
2021/01/11 08:56:58;;;;;;;29.67;9.83;;;;;;;-6.69;89.48;99752.53;5113631;28;20051;-78
2021/01/11 08:59:33;;;;;;;26.37;11.60;;;;;;;-6.57;89.42;99764.41;5113293;28;20047;-78
2021/01/11 09:01:59;;;;;;;26.27;11.13;;;;;;;-6.53;89.42;99760.69;5101742;28;20055;-80
2021/01/11 09:04:33;;;;;;;34.90;12.67;;;;;;;-6.49;89.29;99749.06;5095300;28;20139;-78
2021/01/11 09:07:00;;;;;;;31.40;12.53;;;;;;;-6.41;89.39;99755.78;5113832;28;20039;-78
2021/01/11 09:09:29;;;;;;;31.63;11.00;;;;;;;-6.30;89.27;99768.56;5105173;28;20044;-78
2021/01/11 09:12:07;;;;;;;32.08;11.48;;;;;;;-6.45;89.60;99733.00;5113576;28;20075;-78
2021/01/11 09:14:35;;;;;;;40.00;12.50;;;;;;;-6.32;89.55;99753.66;5113267;28;20487;-78
2021/01/11 09:17:04;;;;;;;36.20;12.47;;;;;;;-6.26;89.55;99778.09;5112690;28;20161;-78
2021/01/11 09:19:31;;;;;;;38.77;13.40;;;;;;;-6.13;88.74;99782.88;5113536;28;20047;-78
2021/01/11 09:22:03;;;;;;;31.03;11.93;;;;;;;-6.24;88.46;99762.16;5106483;28;20301;-78
2021/01/11 09:24:30;;;;;;;34.80;11.13;;;;;;;-6.07;88.93;99796.75;5113355;28;20130;-78
2021/01/11 09:26:57;;;;;;;29.83;11.13;;;;;;;-6.19;89.53;99770.75;5113648;28;20040;-78
2021/01/11 09:29:24;;;;;;;34.87;14.40;;;;;;;-6.13;88.38;99772.28;5113173;28;20548;-79
2021/01/11 09:31:52;;;;;;;45.43;14.23;;;;;;;-6.11;89.07;99757.19;5116674;28;20093;-78
2021/01/11 09:34:19;;;;;;;31.83;11.40;;;;;;;-5.93;88.81;99772.28;5117419;27;20048;-78
2021/01/11 09:36:46;;;;;;;39.60;13.17;;;;;;;-5.85;88.84;99779.91;5124876;27;20052;-79
2021/01/11 09:39:14;;;;;;;50.20;17.43;;;;;;;-5.81;89.42;99801.81;5117369;28;20044;-79
2021/01/11 09:41:45;;;;;;;43.37;15.87;;;;;;;-5.78;88.65;99799.03;5116553;28;20059;-79
2021/01/11 09:44:12;;;;;;;68.13;23.17;;;;;;;-5.98;89.24;99752.25;5116817;28;20047;-79
2021/01/11 09:46:43;;;;;;;41.63;14.30;;;;;;;-5.89;89.30;99765.06;5117053;28;20056;-79
2021/01/11 09:49:10;;;;;;;38.30;13.30;;;;;;;-5.86;89.10;99770.22;5116977;28;20427;-79
2021/01/11 09:51:36;;;;;;;30.33;11.43;;;;;;;-5.85;89.59;99774.59;5117150;28;20097;-79
2021/01/11 09:54:03;;;;;;;36.27;13.43;;;;;;;-5.78;89.25;99767.25;5117523;28;20047;-79
2021/01/11 09:56:30;;;;;;;36.20;11.87;;;;;;;-5.58;89.46;99776.97;5116762;28;20056;-79
2021/01/11 09:58:58;;;;;;;42.03;13.23;;;;;;;-5.44;88.71;99786.97;5115686;28;20048;-79
2021/01/11 10:01:24;;;;;;;35.30;12.83;;;;;;;-5.56;88.52;99764.50;5116950;28;20395;-79
2021/01/11 10:03:50;;;;;;;38.77;15.03;;;;;;;-5.51;88.04;99751.91;5117216;28;20051;-79
2021/01/11 10:06:18;;;;;;;37.40;12.37;;;;;;;-5.41;88.53;99765.63;5117041;28;20052;-79
2021/01/11 10:08:44;;;;;;;38.60;13.87;;;;;;;-5.29;88.46;99785.41;5116969;28;20498;-79
2021/01/11 10:11:14;;;;;;;36.77;12.23;;;;;;;-5.36;88.64;99766.25;5117501;28;20051;-79
2021/01/11 10:13:41;;;;;;;34.60;13.70;;;;;;;-5.34;88.86;99759.13;5116988;28;20052;-79
2021/01/11 10:16:09;;;;;;;40.47;14.00;;;;;;;-5.29;88.61;99740.34;5116742;28;20096;-79
2021/01/11 10:18:36;;;;;;;30.77;12.83;;;;;;;-5.19;87.71;99745.16;5116860;28;20529;-79
2021/01/11 10:21:02;;;;;;;44.77;14.47;;;;;;;-5.16;87.96;99745.00;5117062;28;20462;-79
2021/01/11 10:23:31;;;;;;;43.20;14.63;;;;;;;-5.09;87.90;99752.69;5115297;28;20054;-79
2021/01/11 10:25:57;;;;;;;30.83;11.17;;;;;;;-5.05;87.80;99754.25;5116764;28;20048;-78
2021/01/11 10:28:23;;;;;;;36.43;11.93;;;;;;;-5.09;87.25;99750.03;5116615;28;20051;-78
2021/01/11 10:30:50;;;;;;;32.17;12.93;;;;;;;-4.97;87.71;99762.72;5116607;28;20491;-78
2021/01/11 10:33:16;;;;;;;35.37;11.90;;;;;;;-4.81;87.35;99766.34;5116759;28;20511;-78
2021/01/11 10:35:43;;;;;;;35.33;13.17;;;;;;;-4.95;87.60;99730.81;5116614;28;20099;-78
2021/01/11 10:38:09;;;;;;;36.00;12.70;;;;;;;-4.86;86.52;99717.13;5116777;28;20071;-78
2021/01/11 10:40:37;;;;;;;34.33;13.43;;;;;;;-4.85;86.75;99716.19;5116645;28;20514;-78
2021/01/11 10:43:03;;;;;;;28.70;12.03;;;;;;;-4.74;87.01;99721.84;5115250;28;20054;-78
2021/01/11 10:45:31;;;;;;;32.27;12.40;;;;;;;-4.56;87.10;99730.69;5115428;28;20044;-78
2021/01/11 10:47:58;;;;;;;36.13;12.93;;;;;;;-4.57;86.50;99721.00;5116674;28;20057;-78
2021/01/11 10:50:25;;;;;;;29.67;13.10;;;;;;;-4.43;85.77;99738.91;5116489;28;20054;-78
2021/01/11 10:52:52;;;;;;;34.50;13.83;;;;;;;-4.52;84.97;99720.78;5116126;28;20043;-80
2021/01/11 10:55:20;;;;;;;30.83;12.37;;;;;;;-4.39;85.86;99727.19;5116006;28;20073;-79
2021/01/11 10:57:48;;;;;;;37.10;12.60;;;;;;;-4.37;84.61;99733.28;5115887;28;20051;-79
2021/01/11 11:00:19;;;;;;;30.83;11.57;;;;;;;-4.38;84.81;99707.69;5115946;28;20044;-79
2021/01/11 11:02:47;;;;;;;34.23;13.03;;;;;;;-4.07;84.96;99722.06;5116064;28;20074;-79
2021/01/11 11:05:15;;;;;;;32.03;11.57;;;;;;;-4.20;85.08;99711.22;5098020;28;20052;-79
2021/01/11 11:07:43;;;;;;;33.73;12.50;;;;;;;-4.03;84.45;99720.97;5095029;28;20044;-80
2021/01/11 11:10:10;;;;;;;28.03;11.80;;;;;;;-4.04;83.44;99702.47;5095821;28;20568;-79
2021/01/11 11:12:37;;;;;;;24.67;10.93;;;;;;;-4.00;83.92;99719.97;5102662;28;20494;-79
2021/01/11 11:15:05;;;;;;;28.87;11.33;;;;;;;-4.02;82.82;99704.13;5115153;28;20507;-79
2021/01/11 11:17:42;;;;;;;28.30;11.20;;;;;;;-3.81;82.28;99720.72;5115522;28;20055;-79
2021/01/11 11:20:09;;;;;;;28.90;10.93;;;;;;;-4.01;82.75;99686.38;5115154;28;20411;-80
2021/01/11 11:22:35;;;;;;;29.50;12.13;;;;;;;-3.79;83.34;99702.06;5115287;28;20518;-79
2021/01/11 11:25:06;;;;;;;28.77;11.60;;;;;;;-3.94;82.63;99679.81;5113801;28;20483;-80
2021/01/11 11:27:33;;;;;;;30.37;13.00;;;;;;;-3.64;81.87;99697.72;5114795;28;20052;-79
2021/01/11 11:29:59;;;;;;;33.87;13.17;;;;;;;-3.60;82.57;99681.53;5113895;28;20059;-80
2021/01/11 11:32:28;;;;;;;29.33;12.93;;;;;;;-3.33;81.71;99715.50;5115435;28;20051;-80